Time;durP1;ratioP1;P1;durP2;ratioP2;P2;SDS_P1;SDS_P2;PMS_P1;PMS_P2;Temp;Humidity;BMP_temperature;BMP_pressure;BME280_temperature;BME280_humidity;BME280_pressure;Samples;Min_cycle;Max_cycle;Signal;HPM_P1;HPM_P2
2021/08/21 00:02:21;;;;;;;24.50;18.63;;;15.80;91.20;;;;;;5072281;28;20536;-78
2021/08/21 00:04:47;;;;;;;23.27;17.88;;;15.90;91.20;;;;;;5090749;28;20556;-78
2021/08/21 00:07:13;;;;;;;20.98;17.48;;;15.90;91.20;;;;;;5101083;28;20066;-79
2021/08/21 00:09:39;;;;;;;23.75;17.60;;;15.80;91.20;;;;;;5113241;28;20079;-78
2021/08/21 00:12:06;;;;;;;21.63;17.00;;;15.80;91.20;;;;;;5079594;28;20534;-80
2021/08/21 00:14:34;;;;;;;21.00;17.10;;;15.80;91.30;;;;;;5114801;27;20044;-77
2021/08/21 00:17:01;;;;;;;20.63;17.65;;;15.90;91.30;;;;;;5113945;28;20063;-77
2021/08/21 00:19:28;;;;;;;22.13;17.05;;;15.90;91.20;;;;;;5127771;28;20027;-76
2021/08/21 00:21:53;;;;;;;22.55;17.38;;;15.90;91.20;;;;;;5117565;28;20118;-79
2021/08/21 00:24:19;;;;;;;20.17;17.02;;;15.90;91.30;;;;;;5095346;28;20118;-84
2021/08/21 00:26:45;;;;;;;22.27;16.58;;;15.90;91.30;;;;;;5094783;28;20035;-78
2021/08/21 00:29:12;;;;;;;21.30;15.52;;;15.90;91.30;;;;;;5077281;28;20093;-78
2021/08/21 00:31:37;;;;;;;19.80;15.68;;;15.90;91.30;;;;;;5093880;28;20028;-77
2021/08/21 00:34:03;;;;;;;20.17;16.02;;;16.00;91.30;;;;;;5095243;28;20028;-78
2021/08/21 00:36:29;;;;;;;18.92;16.13;;;16.00;91.30;;;;;;5094050;28;20028;-77
2021/08/21 00:38:55;;;;;;;18.38;15.30;;;16.00;91.30;;;;;;5061335;28;20032;-79
2021/08/21 00:41:20;;;;;;;18.95;14.93;;;16.00;91.30;;;;;;5093964;28;20059;-81
2021/08/21 00:43:46;;;;;;;18.52;15.18;;;16.00;91.30;;;;;;5094271;28;20476;-79
2021/08/21 00:46:12;;;;;;;19.05;15.43;;;16.00;91.20;;;;;;5092670;28;20445;-79
2021/08/21 00:48:37;;;;;;;20.08;15.65;;;16.00;91.10;;;;;;5075243;28;20036;-78
2021/08/21 00:51:03;;;;;;;20.38;15.35;;;16.00;91.00;;;;;;5092681;28;20380;-78
2021/08/21 00:53:31;;;;;;;17.17;14.73;;;16.00;91.00;;;;;;5105044;28;20027;-79
2021/08/21 00:55:58;;;;;;;19.92;16.20;;;16.10;91.10;;;;;;5103798;28;20162;-79
2021/08/21 00:58:25;;;;;;;19.20;14.88;;;16.10;91.10;;;;;;5095406;28;20028;-84
2021/08/21 01:00:52;;;;;;;20.52;14.50;;;16.10;91.00;;;;;;5080105;28;20028;-78
2021/08/21 01:03:18;;;;;;;17.65;14.80;;;16.10;91.00;;;;;;5097046;28;20093;-77
2021/08/21 01:05:43;;;;;;;17.95;14.07;;;16.10;90.90;;;;;;5113273;28;20032;-77
2021/08/21 01:08:09;;;;;;;16.20;14.13;;;16.10;90.90;;;;;;5114380;28;20445;-78
2021/08/21 01:10:35;;;;;;;16.52;13.75;;;16.10;90.90;;;;;;5097428;28;20532;-79
2021/08/21 01:13:01;;;;;;;19.80;14.70;;;16.10;90.90;;;;;;5097966;28;20032;-78
2021/08/21 01:15:27;;;;;;;17.40;13.35;;;16.20;90.90;;;;;;5114249;28;20050;-79
2021/08/21 01:17:54;;;;;;;20.15;14.20;;;16.20;90.80;;;;;;5120521;28;20016;-82
2021/08/21 01:20:21;;;;;;;18.25;14.88;;;16.20;90.70;;;;;;5116232;28;20039;-80
2021/08/21 01:22:47;;;;;;;18.33;14.20;;;16.30;90.70;;;;;;5135748;28;20219;-80
2021/08/21 01:25:16;;;;;;;15.68;13.18;;;16.20;90.70;;;;;;5136778;28;20031;-77
2021/08/21 01:27:42;;;;;;;17.58;13.82;;;16.20;90.80;;;;;;5136333;28;20030;-78
2021/08/21 01:30:08;;;;;;;16.17;12.85;;;16.20;90.90;;;;;;5136809;28;20043;-80
2021/08/21 01:32:34;;;;;;;17.77;13.50;;;16.20;90.80;;;;;;5130537;28;20086;-78
2021/08/21 01:35:00;;;;;;;15.45;13.05;;;16.10;90.80;;;;;;5116363;28;20031;-77
2021/08/21 01:37:28;;;;;;;17.02;13.60;;;16.20;90.90;;;;;;5114891;28;20380;-78
2021/08/21 01:39:55;;;;;;;16.73;13.52;;;16.20;90.90;;;;;;5115914;28;20041;-78
2021/08/21 01:42:22;;;;;;;20.63;14.43;;;16.20;90.90;;;;;;5116187;28;20032;-79
2021/08/21 01:44:48;;;;;;;18.88;14.25;;;16.20;90.90;;;;;;5113809;28;20050;-78
2021/08/21 01:47:15;;;;;;;18.13;13.70;;;16.20;90.90;;;;;;5114375;28;20015;-77
2021/08/21 01:49:41;;;;;;;18.30;13.90;;;16.10;91.00;;;;;;5111549;28;20039;-77
2021/08/21 01:52:07;;;;;;;22.10;14.90;;;16.20;91.20;;;;;;5078027;28;20035;-77
2021/08/21 01:54:33;;;;;;;19.65;14.63;;;16.20;91.00;;;;;;5080243;28;20113;-82
2021/08/21 01:57:02;;;;;;;19.60;14.70;;;16.30;91.10;;;;;;5106723;28;20020;-77
2021/08/21 01:59:35;;;;;;;22.50;14.00;;;16.30;91.10;;;;;;5098122;28;20040;-77
2021/08/21 02:02:00;;;;;;;;;;;16.30;91.10;;;;;;5109492;28;20024;-77
2021/08/21 02:04:27;;;;;;;17.02;13.50;;;16.30;91.10;;;;;;5112827;28;19918;-78
2021/08/21 02:06:54;;;;;;;19.52;14.18;;;16.20;91.10;;;;;;5112120;28;20892;-78
2021/08/21 02:09:22;;;;;;;20.58;13.75;;;16.20;91.10;;;;;;5113125;28;20112;-79
2021/08/21 02:11:49;;;;;;;22.52;14.25;;;16.20;91.10;;;;;;5111243;28;20467;-77
2021/08/21 02:14:16;;;;;;;21.77;14.63;;;16.20;91.10;;;;;;5103002;28;20027;-79
2021/08/21 02:16:44;;;;;;;19.80;15.18;;;16.20;91.10;;;;;;5096488;28;20024;-77
2021/08/21 02:19:10;;;;;;;20.27;16.80;;;16.10;91.20;;;;;;5101369;28;20028;-78
2021/08/21 02:21:38;;;;;;;19.70;16.50;;;16.10;91.20;;;;;;5075801;28;20384;-78
2021/08/21 02:24:04;;;;;;;18.67;15.88;;;16.10;91.30;;;;;;5092307;28;20034;-77
2021/08/21 02:26:30;;;;;;;19.13;15.13;;;16.00;91.40;;;;;;5105641;28;20497;-77
2021/08/21 02:28:55;;;;;;;18.55;15.55;;;16.00;91.50;;;;;;5071025;28;20106;-78
2021/08/21 02:31:22;;;;;;;20.23;15.63;;;16.10;91.50;;;;;;5107662;28;20026;-79
2021/08/21 02:33:48;;;;;;;18.23;14.50;;;16.00;91.40;;;;;;5108869;28;20028;-78
2021/08/21 02:36:14;;;;;;;20.33;14.65;;;16.00;91.60;;;;;;5096722;28;20185;-78
2021/08/21 02:38:41;;;;;;;19.27;14.32;;;16.00;91.50;;;;;;5111462;28;20110;-82
2021/08/21 02:41:07;;;;;;;20.98;14.80;;;16.00;91.50;;;;;;5106818;28;20514;-78
2021/08/21 02:43:33;;;;;;;18.80;14.40;;;16.00;91.50;;;;;;5108915;28;20024;-79
2021/08/21 02:45:59;;;;;;;20.08;14.45;;;15.90;91.50;;;;;;5082278;28;20142;-75
2021/08/21 02:48:25;;;;;;;20.00;15.40;;;15.90;91.60;;;;;;5089056;28;20369;-78
2021/08/21 02:50:51;;;;;;;16.80;14.57;;;16.00;91.60;;;;;;5093455;28;20012;-76
2021/08/21 02:53:16;;;;;;;19.17;14.00;;;16.00;91.60;;;;;;5061626;28;20028;-79
2021/08/21 02:55:42;;;;;;;18.60;14.30;;;16.00;91.60;;;;;;5108365;28;20520;-82
2021/08/21 02:58:07;;;;;;;19.15;13.77;;;16.00;91.60;;;;;;5106361;28;20094;-79
2021/08/21 03:00:33;;;;;;;16.38;13.73;;;16.10;91.60;;;;;;5102739;28;20111;-77
2021/08/21 03:02:59;;;;;;;18.55;13.75;;;16.20;91.50;;;;;;5090148;28;20019;-77
2021/08/21 03:05:25;;;;;;;16.08;13.60;;;16.20;91.50;;;;;;5111478;28;20028;-78
2021/08/21 03:07:51;;;;;;;16.45;13.02;;;16.20;91.50;;;;;;5110906;28;20025;-79
2021/08/21 03:10:16;;;;;;;16.02;13.27;;;16.20;91.40;;;;;;5108548;28;20039;-79
2021/08/21 03:12:43;;;;;;;15.25;12.43;;;16.30;91.40;;;;;;5105098;28;20460;-79
2021/08/21 03:15:09;;;;;;;19.15;13.25;;;16.30;91.30;;;;;;5103197;28;20028;-76
2021/08/21 03:17:34;;;;;;;17.17;13.82;;;16.30;91.20;;;;;;5092448;28;20034;-78
2021/08/21 03:20:00;;;;;;;17.38;13.63;;;16.30;91.20;;;;;;5076286;28;20119;-78
2021/08/21 03:22:25;;;;;;;17.67;13.07;;;16.30;91.30;;;;;;5089987;28;20031;-77
2021/08/21 03:24:51;;;;;;;16.33;12.77;;;16.20;91.30;;;;;;5090262;28;20088;-77
2021/08/21 03:27:17;;;;;;;15.05;12.90;;;16.30;91.40;;;;;;5098221;28;20039;-77
2021/08/21 03:29:42;;;;;;;16.48;13.90;;;16.30;91.50;;;;;;5103529;28;20032;-77
2021/08/21 03:32:10;;;;;;;15.70;13.63;;;16.30;91.30;;;;;;5103176;28;20201;-78
2021/08/21 03:34:37;;;;;;;16.15;12.55;;;16.40;91.30;;;;;;5090927;28;20028;-77
2021/08/21 03:37:05;;;;;;;17.08;13.32;;;16.40;91.30;;;;;;5099782;28;20024;-76
2021/08/21 03:39:30;;;;;;;17.40;13.63;;;16.40;91.30;;;;;;5096972;28;20024;-79
2021/08/21 03:41:56;;;;;;;18.13;13.35;;;16.50;91.20;;;;;;5103865;28;20103;-78
2021/08/21 03:44:21;;;;;;;18.63;13.90;;;16.40;91.20;;;;;;5111541;28;20458;-78
2021/08/21 03:46:47;;;;;;;17.77;13.73;;;16.40;91.30;;;;;;5103044;28;20038;-81
2021/08/21 03:49:13;;;;;;;20.33;13.48;;;16.30;91.10;;;;;;5071076;28;20032;-78
2021/08/21 03:51:38;;;;;;;18.75;14.00;;;16.30;91.20;;;;;;5111891;28;20032;-78
2021/08/21 03:54:04;;;;;;;16.50;13.48;;;16.30;91.20;;;;;;5108717;28;20027;-76
2021/08/21 03:56:30;;;;;;;16.08;12.77;;;16.20;91.20;;;;;;5112854;28;20550;-77
2021/08/21 03:58:56;;;;;;;15.77;12.65;;;16.10;91.30;;;;;;5112156;28;20058;-78
2021/08/21 04:01:22;;;;;;;17.25;12.77;;;16.10;91.50;;;;;;5097569;28;20028;-76
2021/08/21 04:03:47;;;;;;;16.23;12.93;;;16.20;91.40;;;;;;5076597;28;20031;-77
2021/08/21 04:06:13;;;;;;;16.77;13.40;;;16.10;91.30;;;;;;5106537;28;20043;-79
2021/08/21 04:08:39;;;;;;;18.55;13.63;;;16.10;91.30;;;;;;5102542;28;20052;-77
2021/08/21 04:11:04;;;;;;;17.38;13.18;;;16.10;91.30;;;;;;5115948;28;20472;-76
2021/08/21 04:13:30;;;;;;;17.85;13.23;;;16.00;91.40;;;;;;5120642;28;20550;-78
2021/08/21 04:15:56;;;;;;;18.90;14.13;;;15.90;91.50;;;;;;5098952;28;20103;-77
2021/08/21 04:18:21;;;;;;;17.33;13.73;;;16.00;91.60;;;;;;5113528;28;20106;-78
2021/08/21 04:20:47;;;;;;;15.68;12.65;;;16.00;91.60;;;;;;5113607;28;20032;-76
2021/08/21 04:23:13;;;;;;;19.70;14.57;;;16.00;91.60;;;;;;5113555;28;20019;-80
2021/08/21 04:25:39;;;;;;;18.42;14.18;;;15.90;91.60;;;;;;5113860;28;20486;-77
2021/08/21 04:28:05;;;;;;;22.38;14.68;;;15.90;91.60;;;;;;5113631;28;20028;-77
2021/08/21 04:30:31;;;;;;;17.95;14.30;;;15.90;91.70;;;;;;5097227;28;20028;-76
2021/08/21 04:32:57;;;;;;;18.00;13.45;;;15.80;91.70;;;;;;5114270;28;20024;-81
2021/08/21 04:35:22;;;;;;;19.45;13.73;;;15.90;91.80;;;;;;5097491;28;20096;-78
2021/08/21 04:37:48;;;;;;;15.52;13.02;;;15.90;91.90;;;;;;5114155;28;20038;-77
2021/08/21 04:40:14;;;;;;;18.02;13.00;;;16.00;91.70;;;;;;5115337;28;20038;-77
2021/08/21 04:42:40;;;;;;;16.75;12.73;;;16.00;91.70;;;;;;5114643;28;20086;-78
2021/08/21 04:45:07;;;;;;;16.00;12.95;;;16.00;91.60;;;;;;5125510;28;20098;-77
2021/08/21 04:47:33;;;;;;;16.52;11.88;;;16.00;91.60;;;;;;5118058;28;20168;-76
2021/08/21 04:49:59;;;;;;;16.38;11.98;;;15.90;91.50;;;;;;5116410;28;20496;-79
2021/08/21 04:52:25;;;;;;;15.43;12.35;;;15.90;91.60;;;;;;5116717;28;20368;-77
2021/08/21 04:54:50;;;;;;;13.82;11.65;;;16.00;91.60;;;;;;5114822;28;20026;-78
2021/08/21 04:57:17;;;;;;;16.23;12.40;;;16.00;91.60;;;;;;5114402;28;20235;-77
2021/08/21 04:59:42;;;;;;;14.27;11.45;;;16.00;91.60;;;;;;5114773;28;20035;-77
2021/08/21 05:02:09;;;;;;;16.73;10.88;;;16.10;91.60;;;;;;5097037;28;20081;-78
2021/08/21 05:04:34;;;;;;;16.33;11.95;;;16.00;91.50;;;;;;5113974;28;20028;-78
2021/08/21 05:07:00;;;;;;;15.60;11.93;;;16.10;91.50;;;;;;5114050;28;20452;-83
2021/08/21 05:09:25;;;;;;;13.93;11.35;;;16.10;91.50;;;;;;5096734;28;20530;-77
2021/08/21 05:11:51;;;;;;;16.73;11.57;;;16.10;91.50;;;;;;5114008;28;20123;-77
2021/08/21 05:14:18;;;;;;;14.73;11.02;;;16.20;91.40;;;;;;5112909;28;20111;-77
2021/08/21 05:16:46;;;;;;;16.38;11.60;;;16.30;91.30;;;;;;5080092;28;20024;-78
2021/08/21 05:19:25;;;;;;;14.80;11.93;;;16.40;91.10;;;;;;5115568;28;20038;-77
2021/08/21 05:21:52;;;;;;;13.88;11.75;;;16.30;91.10;;;;;;5115263;28;20034;-75
2021/08/21 05:24:19;;;;;;;14.10;12.43;;;16.40;91.10;;;;;;5113636;28;20016;-77
2021/08/21 05:26:47;;;;;;;15.00;11.75;;;16.50;91.00;;;;;;5109994;28;20025;-78
2021/08/21 05:29:16;;;;;;;13.93;11.70;;;16.60;90.90;;;;;;5092908;28;20078;-78
2021/08/21 05:31:43;;;;;;;16.15;11.73;;;16.70;90.70;;;;;;5104187;28;20043;-77
2021/08/21 05:34:13;;;;;;;15.10;11.75;;;16.80;90.60;;;;;;5092960;28;20036;-77
2021/08/21 05:36:39;;;;;;;16.25;11.32;;;16.90;90.40;;;;;;5100001;28;20489;-78
2021/08/21 05:39:10;;;;;;;14.35;11.43;;;17.00;90.30;;;;;;5112744;28;20028;-84
2021/08/21 05:41:36;;;;;;;13.77;11.05;;;17.00;90.10;;;;;;5113312;28;20024;-77
2021/08/21 05:44:01;;;;;;;18.30;12.02;;;17.10;90.00;;;;;;5113456;28;20030;-77
2021/08/21 05:46:27;;;;;;;14.02;11.55;;;17.30;89.70;;;;;;5096224;28;20116;-77
2021/08/21 05:48:53;;;;;;;13.93;10.60;;;17.30;89.40;;;;;;5112244;28;20689;-78
2021/08/21 05:51:18;;;;;;;13.93;10.70;;;17.40;89.20;;;;;;5092516;28;20540;-78
2021/08/21 05:53:44;;;;;;;16.15;10.90;;;17.50;88.90;;;;;;5093612;28;20039;-78
2021/08/21 05:56:09;;;;;;;15.80;11.45;;;17.50;88.60;;;;;;5092548;28;20482;-77
2021/08/21 05:58:35;;;;;;;14.70;11.25;;;17.50;88.40;;;;;;5059437;28;20452;-77
2021/08/21 06:01:00;;;;;;;15.30;12.27;;;17.40;88.50;;;;;;5059171;28;20028;-78
2021/08/21 06:03:26;;;;;;;17.55;11.68;;;17.20;88.60;;;;;;5093340;28;20093;-78
2021/08/21 06:05:52;;;;;;;14.43;10.95;;;17.10;89.00;;;;;;5093534;28;20086;-77
2021/08/21 06:08:17;;;;;;;15.45;11.20;;;17.20;89.30;;;;;;5075176;28;20407;-78
2021/08/21 06:10:43;;;;;;;15.15;10.93;;;17.20;89.40;;;;;;5101798;28;20024;-78
2021/08/21 06:13:09;;;;;;;14.95;11.90;;;17.30;89.30;;;;;;5112319;28;20110;-82
2021/08/21 06:15:35;;;;;;;15.73;11.43;;;17.40;89.00;;;;;;5112467;28;20100;-77
2021/08/21 06:18:02;;;;;;;16.25;11.70;;;17.50;88.90;;;;;;5095621;28;20023;-78
2021/08/21 06:20:28;;;;;;;16.38;11.82;;;17.70;88.70;;;;;;5111589;28;20028;-78
2021/08/21 06:22:53;;;;;;;14.43;11.02;;;18.00;88.10;;;;;;5069159;28;20035;-78
2021/08/21 06:25:19;;;;;;;12.85;11.32;;;18.10;87.70;;;;;;5091183;28;20384;-77
2021/08/21 06:27:45;;;;;;;13.15;11.15;;;18.30;87.30;;;;;;5075542;28;20369;-76
2021/08/21 06:30:11;;;;;;;13.95;11.02;;;18.40;86.70;;;;;;5092062;28;20225;-80
2021/08/21 06:32:36;;;;;;;16.60;11.93;;;18.50;86.40;;;;;;5103208;28;20175;-79
2021/08/21 06:35:03;;;;;;;15.00;12.38;;;18.60;86.10;;;;;;5113656;28;20489;-78
2021/08/21 06:37:29;;;;;;;15.18;11.55;;;18.60;85.80;;;;;;5112366;28;20149;-77
2021/08/21 06:39:54;;;;;;;15.57;11.50;;;18.70;86.20;;;;;;5112263;28;20126;-77
2021/08/21 06:42:20;;;;;;;15.48;11.77;;;18.80;85.50;;;;;;5074411;28;20106;-78
2021/08/21 06:44:46;;;;;;;15.68;10.90;;;19.10;84.90;;;;;;5091554;28;20051;-77
2021/08/21 06:47:11;;;;;;;12.43;10.82;;;19.60;84.10;;;;;;5091962;28;20028;-84
2021/08/21 06:49:37;;;;;;;11.40;10.18;;;19.80;82.70;;;;;;5093449;28;20153;-79
2021/08/21 06:52:03;;;;;;;12.20;10.70;;;20.20;81.80;;;;;;5112895;28;20057;-78
2021/08/21 06:54:29;;;;;;;11.80;9.73;;;20.40;80.60;;;;;;5091310;28;20029;-78
2021/08/21 06:56:54;;;;;;;12.15;9.25;;;21.00;79.70;;;;;;5091371;28;20446;-78
2021/08/21 06:59:20;;;;;;;10.15;7.80;;;21.70;77.70;;;;;;5091429;28;20115;-77
2021/08/21 07:01:46;;;;;;;7.85;7.15;;;22.20;75.90;;;;;;5074650;28;20032;-78
2021/08/21 07:04:12;;;;;;;8.80;7.82;;;22.60;74.00;;;;;;5092760;28;20110;-78
2021/08/21 07:06:38;;;;;;;8.10;6.93;;;22.80;72.90;;;;;;5091537;28;20134;-78
2021/08/21 07:09:03;;;;;;;8.23;6.95;;;23.20;72.30;;;;;;5091453;28;20476;-78
2021/08/21 07:11:29;;;;;;;7.25;6.55;;;23.70;70.90;;;;;;5097871;28;20031;-77
2021/08/21 07:13:55;;;;;;;6.35;5.80;;;24.50;69.10;;;;;;5095324;28;20026;-78
2021/08/21 07:16:21;;;;;;;10.75;6.13;;;25.00;67.20;;;;;;5111642;28;20070;-77
2021/08/21 07:18:46;;;;;;;7.50;5.78;;;25.30;66.40;;;;;;5112462;28;20031;-77
2021/08/21 07:21:12;;;;;;;7.25;6.15;;;25.60;65.30;;;;;;5111910;28;20031;-77
2021/08/21 07:23:38;;;;;;;7.32;6.10;;;25.80;64.00;;;;;;5105191;28;20034;-78
2021/08/21 07:26:04;;;;;;;6.47;4.95;;;26.00;63.40;;;;;;5094817;28;20448;-77
2021/08/21 07:28:30;;;;;;;6.95;5.28;;;26.30;62.90;;;;;;5111499;28;20023;-78
2021/08/21 07:30:56;;;;;;;7.45;5.93;;;26.50;62.10;;;;;;5111561;28;20027;-78
2021/08/21 07:33:22;;;;;;;5.88;5.13;;;26.50;62.10;;;;;;5110816;28;20047;-78
2021/08/21 07:35:48;;;;;;;6.85;5.32;;;26.60;61.60;;;;;;5109469;28;20137;-78
2021/08/21 07:38:13;;;;;;;6.35;5.43;;;26.60;61.10;;;;;;5104269;28;20027;-78
2021/08/21 07:40:39;;;;;;;6.10;5.50;;;26.40;61.60;;;;;;5073198;28;20016;-79
2021/08/21 07:43:05;;;;;;;5.82;5.20;;;26.10;62.20;;;;;;5103260;28;20031;-77
2021/08/21 07:45:30;;;;;;;6.70;6.00;;;26.00;63.00;;;;;;5110015;28;20077;-77
2021/08/21 07:47:56;;;;;;;6.90;5.95;;;26.20;62.30;;;;;;5110793;28;20032;-77
2021/08/21 07:50:22;;;;;;;7.13;5.95;;;26.30;61.50;;;;;;5110456;28;20032;-81
2021/08/21 07:52:48;;;;;;;6.25;5.65;;;26.30;61.60;;;;;;5094072;28;20031;-77
2021/08/21 07:55:15;;;;;;;8.68;6.45;;;26.00;61.60;;;;;;5078915;28;20383;-78
2021/08/21 07:57:41;;;;;;;7.72;5.82;;;25.50;62.40;;;;;;5094238;28;20024;-78
2021/08/21 08:00:07;;;;;;;6.13;5.53;;;25.40;63.20;;;;;;5111878;28;20034;-77
2021/08/21 08:02:33;;;;;;;5.88;4.72;;;25.50;63.40;;;;;;5111043;28;20099;-77
2021/08/21 08:04:59;;;;;;;9.68;5.63;;;25.60;63.30;;;;;;5111879;28;20515;-77
2021/08/21 08:07:24;;;;;;;5.60;4.72;;;26.00;63.20;;;;;;5112615;28;20494;-80
2021/08/21 08:09:50;;;;;;;6.75;5.13;;;26.40;62.30;;;;;;5108254;28;20118;-76
2021/08/21 08:12:16;;;;;;;4.70;4.07;;;26.60;61.90;;;;;;5106427;28;20394;-78
2021/08/21 08:14:42;;;;;;;4.72;3.80;;;27.00;60.70;;;;;;5102451;28;20024;-78
2021/08/21 08:17:08;;;;;;;6.07;4.43;;;27.30;59.80;;;;;;5109461;28;20028;-77
2021/08/21 08:19:34;;;;;;;5.15;4.22;;;27.50;58.60;;;;;;5094314;28;20036;-77
2021/08/21 08:22:00;;;;;;;5.00;4.50;;;28.00;58.10;;;;;;5110991;28;20023;-77
2021/08/21 08:24:25;;;;;;;5.75;3.85;;;28.20;57.30;;;;;;5110845;28;20524;-82
2021/08/21 08:26:52;;;;;;;4.70;3.70;;;28.40;56.70;;;;;;5105291;28;20020;-76
2021/08/21 08:29:17;;;;;;;4.50;3.05;;;28.50;56.50;;;;;;5110089;28;20038;-77
2021/08/21 08:31:43;;;;;;;3.95;3.60;;;28.50;56.70;;;;;;5115332;28;20015;-77
2021/08/21 08:34:08;;;;;;;4.78;3.55;;;28.90;55.80;;;;;;5114358;28;20455;-76
2021/08/21 08:36:34;;;;;;;4.50;2.80;;;29.10;56.00;;;;;;5082210;28;20047;-78
2021/08/21 08:39:00;;;;;;;5.82;3.17;;;29.20;55.80;;;;;;5096431;28;20032;-78
2021/08/21 08:41:25;;;;;;;4.60;3.50;;;29.40;54.10;;;;;;5090262;28;20044;-78
2021/08/21 08:43:51;;;;;;;4.78;3.55;;;29.50;53.80;;;;;;5107143;28;20046;-77
2021/08/21 08:46:19;;;;;;;3.97;2.67;;;29.50;53.80;;;;;;5115716;28;20027;-77
2021/08/21 08:48:46;;;;;;;3.83;2.60;;;29.50;53.50;;;;;;5107016;28;20032;-82
2021/08/21 08:51:12;;;;;;;3.95;2.70;;;29.80;53.80;;;;;;5113224;28;20028;-78
2021/08/21 08:53:37;;;;;;;3.83;2.47;;;30.00;53.00;;;;;;5107617;28;20361;-79
2021/08/21 08:56:04;;;;;;;3.90;1.80;;;29.80;53.10;;;;;;5125705;27;20051;-80
2021/08/21 08:58:30;;;;;;;4.75;2.58;;;29.50;54.60;;;;;;5096848;28;20035;-82
2021/08/21 09:00:56;;;;;;;3.40;1.70;;;29.20;53.60;;;;;;5114381;28;20055;-78
2021/08/21 09:03:25;;;;;;;3.95;1.40;;;28.70;55.20;;;;;;5112573;28;20051;-80
2021/08/21 09:05:52;;;;;;;6.13;1.00;;;28.90;55.60;;;;;;5113137;28;20024;-82
2021/08/21 09:08:26;;;;;;;2.42;1.08;;;29.40;53.60;;;;;;5106961;28;20045;-79
2021/08/21 09:10:51;;;;;;;2.42;1.20;;;29.70;52.60;;;;;;5116715;28;20097;-78
2021/08/21 09:13:18;;;;;;;2.05;0.70;;;29.70;51.40;;;;;;5096888;28;20387;-78
2021/08/21 09:15:51;;;;;;;2.53;0.63;;;29.90;51.90;;;;;;5110031;28;20069;-78
2021/08/21 09:18:20;;;;;;;2.58;0.80;;;30.40;51.90;;;;;;5113038;28;20038;-80
2021/08/21 09:20:48;;;;;;;4.30;0.70;;;31.00;51.40;;;;;;5094157;28;20036;-78
2021/08/21 09:23:40;;;;;;;3.45;0.73;;;31.10;50.10;;;;;;5102622;28;20027;-79
2021/08/21 09:26:14;;;;;;;1.42;0.80;;;30.90;50.00;;;;;;5114136;28;20024;-79
2021/08/21 09:28:51;;;;;;;1.98;0.70;;;30.60;49.80;;;;;;5107264;28;20027;-78
2021/08/21 09:31:19;;;;;;;1.58;0.60;;;30.50;50.10;;;;;;5113280;28;20016;-77
2021/08/21 09:33:56;;;;;;;2.28;0.85;;;30.20;49.90;;;;;;5113012;28;20581;-78
2021/08/21 09:36:32;;;;;;;2.05;0.80;;;29.90;49.90;;;;;;5104695;28;20108;-77
2021/08/21 09:39:06;;;;;;;2.50;0.60;;;29.60;50.90;;;;;;5109353;27;20032;-80
2021/08/21 09:41:55;;;;;;;3.80;0.90;;;29.80;50.70;;;;;;5107788;28;20043;-76
2021/08/21 09:44:31;;;;;;;2.13;0.73;;;29.70;50.40;;;;;;5106244;28;20023;-77
2021/08/21 09:47:13;;;;;;;1.85;0.77;;;29.90;50.50;;;;;;5113218;28;20016;-77
2021/08/21 09:49:39;;;;;;;;;;;29.70;50.70;;;;;;5114761;28;20016;-77
2021/08/21 09:52:07;;;;;;;1.10;0.60;;;29.60;50.80;;;;;;5111058;28;19916;-77
2021/08/21 09:54:33;;;;;;;1.60;0.60;;;29.50;50.30;;;;;;5112792;28;20019;-78
2021/08/21 09:56:59;;;;;;;3.63;0.90;;;29.50;50.30;;;;;;5102805;28;20031;-78
2021/08/21 09:59:36;;;;;;;1.45;0.60;;;29.70;50.50;;;;;;5099885;28;20085;-79
2021/08/21 10:02:13;;;;;;;1.38;0.60;;;29.50;50.70;;;;;;5092048;28;20024;-79
2021/08/21 10:04:43;;;;;;;1.15;0.60;;;29.50;50.20;;;;;;5101160;28;20464;-84
2021/08/21 10:07:20;;;;;;;1.38;0.50;;;29.60;50.60;;;;;;5112554;28;20027;-78
2021/08/21 10:09:48;;;;;;;1.00;0.50;;;29.80;49.50;;;;;;5099398;28;20048;-77
2021/08/21 10:12:15;;;;;;;1.00;0.50;;;30.00;49.50;;;;;;5105893;28;20056;-79
2021/08/21 10:14:44;;;;;;;1.63;0.50;;;30.20;49.10;;;;;;5075035;28;20024;-83
2021/08/21 10:17:10;;;;;;;1.45;0.50;;;30.40;48.20;;;;;;5107456;28;20032;-79
2021/08/21 10:19:40;;;;;;;0.88;0.50;;;30.60;47.90;;;;;;5093780;28;20496;-77
2021/08/21 10:22:09;;;;;;;1.08;0.50;;;30.60;48.10;;;;;;5107046;28;20083;-79
2021/08/21 10:24:37;;;;;;;1.10;0.60;;;30.30;47.80;;;;;;5113132;28;20054;-78
2021/08/21 10:27:14;;;;;;;1.75;0.60;;;30.00;48.40;;;;;;5093616;28;20027;-78
2021/08/21 10:29:40;;;;;;;1.90;0.50;;;30.20;49.50;;;;;;5113551;28;20026;-83
2021/08/21 10:32:30;;;;;;;1.45;0.60;;;30.20;48.50;;;;;;5111929;28;20024;-78
2021/08/21 10:34:56;;;;;;;1.95;0.50;;;29.50;49.10;;;;;;5111893;28;20039;-77
2021/08/21 10:37:36;;;;;;;5.03;0.60;;;29.20;49.80;;;;;;5112234;28;20027;-81
2021/08/21 10:40:27;;;;;;;1.83;0.80;;;28.70;51.00;;;;;;5109542;27;20031;-78
2021/08/21 10:42:53;;;;;;;1.38;0.60;;;29.00;49.90;;;;;;5101764;28;20076;-78
2021/08/21 10:45:45;;;;;;;1.25;0.60;;;29.30;50.20;;;;;;5100439;28;20120;-79
2021/08/21 10:48:29;;;;;;;1.00;0.55;;;29.80;48.80;;;;;;5106168;28;20024;-78
2021/08/21 10:50:57;;;;;;;1.33;0.50;;;29.90;49.00;;;;;;5099524;28;20357;-78
2021/08/21 10:53:27;;;;;;;1.00;0.50;;;30.20;48.80;;;;;;5113624;28;20035;-79
2021/08/21 10:55:54;;;;;;;1.30;0.47;;;30.70;48.40;;;;;;5114035;28;20019;-78
2021/08/21 10:58:23;;;;;;;1.38;0.40;;;31.00;46.60;;;;;;5107047;28;20501;-78
2021/08/21 11:00:51;;;;;;;1.25;0.40;;;31.20;47.00;;;;;;5101408;28;20021;-84
2021/08/21 11:03:24;;;;;;;4.60;0.60;;;31.00;46.70;;;;;;5101166;28;20055;-78
2021/08/21 11:06:05;;;;;;;3.33;0.50;;;30.30;47.60;;;;;;5100805;28;20038;-80
2021/08/21 11:08:33;;;;;;;0.95;0.40;;;30.00;48.20;;;;;;5103313;28;20112;-80
2021/08/21 11:11:07;;;;;;;1.40;0.43;;;29.80;48.40;;;;;;5109620;28;20066;-79
2021/08/21 11:14:10;;;;;;;1.50;0.40;;;30.10;49.80;;;;;;5111539;28;20379;-79
2021/08/21 11:16:50;;;;;;;1.67;0.60;;;30.70;48.50;;;;;;5092765;28;20051;-79
2021/08/21 11:19:25;;;;;;;1.10;0.40;;;30.60;46.20;;;;;;5091585;28;20494;-78
2021/08/21 11:21:51;;;;;;;1.30;0.50;;;30.70;46.50;;;;;;5095216;28;20034;-82
2021/08/21 11:24:28;;;;;;;1.80;0.40;;;30.70;47.00;;;;;;5103242;28;20027;-80
2021/08/21 11:27:22;;;;;;;1.77;0.40;;;30.50;47.20;;;;;;5113741;28;20094;-78
2021/08/21 11:30:12;;;;;;;1.73;0.40;;;30.80;47.60;;;;;;5111289;28;20031;-78
2021/08/21 11:32:54;;;;;;;1.40;0.40;;;30.90;45.50;;;;;;5103037;28;20110;-78
2021/08/21 11:35:27;;;;;;;1.13;0.40;;;30.50;45.10;;;;;;5110866;28;20118;-79
2021/08/21 11:37:58;;;;;;;2.40;0.40;;;30.00;45.90;;;;;;5111752;28;20278;-80
2021/08/21 11:40:35;;;;;;;1.52;0.50;;;30.00;46.20;;;;;;5099249;28;20027;-79
2021/08/21 11:43:02;;;;;;;1.40;0.50;;;30.00;47.40;;;;;;5107289;28;20146;-80
2021/08/21 11:45:28;;;;;;;2.17;0.50;;;29.90;46.80;;;;;;5108834;28;20025;-79
2021/08/21 11:47:55;;;;;;;0.80;0.50;;;29.90;47.00;;;;;;5091941;28;20028;-81
2021/08/21 11:50:45;;;;;;;1.17;0.35;;;29.80;47.30;;;;;;5108598;28;20032;-78
2021/08/21 11:53:18;;;;;;;1.65;0.30;;;30.10;47.30;;;;;;5103080;28;20066;-80
2021/08/21 11:55:45;;;;;;;0.57;0.30;;;30.00;46.30;;;;;;5111109;28;20114;-78
2021/08/21 11:58:11;;;;;;;1.02;0.32;;;30.00;46.00;;;;;;5112759;28;20103;-78
2021/08/21 12:00:40;;;;;;;0.60;0.40;;;29.80;46.80;;;;;;5111139;28;20031;-77
2021/08/21 12:03:09;;;;;;;1.60;0.40;;;29.80;46.70;;;;;;5112683;28;20055;-78
2021/08/21 12:05:38;;;;;;;0.70;0.40;;;29.80;47.80;;;;;;5098757;28;20081;-78
2021/08/21 12:08:33;;;;;;;0.70;0.40;;;29.90;47.40;;;;;;5111428;28;20078;-78
2021/08/21 12:11:01;;;;;;;0.68;0.30;;;29.90;46.70;;;;;;5111143;28;20046;-84
2021/08/21 12:13:29;;;;;;;0.70;0.40;;;29.70;46.90;;;;;;5129570;28;20133;-78
2021/08/21 12:15:57;;;;;;;1.10;0.50;;;29.70;46.70;;;;;;5132307;28;20069;-85
2021/08/21 12:18:25;;;;;;;1.30;0.40;;;29.60;47.00;;;;;;5131963;28;20027;-77
2021/08/21 12:20:52;;;;;;;1.15;0.40;;;29.60;46.40;;;;;;5132269;28;20110;-77
2021/08/21 12:23:18;;;;;;;1.00;0.40;;;29.60;48.00;;;;;;5129508;28;20028;-79
2021/08/21 12:25:55;;;;;;;0.50;0.30;;;29.80;47.70;;;;;;5117410;28;20031;-78
2021/08/21 12:28:23;;;;;;;3.03;0.47;;;29.90;45.90;;;;;;5108468;28;20127;-77
2021/08/21 12:30:53;;;;;;;0.60;0.30;;;29.90;45.30;;;;;;5111877;28;20031;-77
2021/08/21 12:33:26;;;;;;;0.65;0.30;;;29.60;45.40;;;;;;5104919;28;20024;-79
2021/08/21 12:35:51;;;;;;;1.52;0.40;;;29.60;46.70;;;;;;5117366;28;20034;-78
2021/08/21 12:38:19;;;;;;;0.60;0.30;;;29.60;47.80;;;;;;5106199;28;20028;-77
2021/08/21 12:41:05;;;;;;;0.90;0.40;;;29.60;46.50;;;;;;5094836;28;20024;-78